Time;durP1;ratioP1;P1;durP2;ratioP2;P2;SDS_P1;SDS_P2;PMS_P1;PMS_P2;Temp;Humidity;BMP_temperature;BMP_pressure;BME280_temperature;BME280_humidity;BME280_pressure;Samples;Min_cycle;Max_cycle;Signal;HPM_P1;HPM_P2
2021/05/05 00:02:08;;;;;;;18.05;6.53;;;9.30;99.90;;;9.34;77.61;99979.78;5072423;28;20051;-71
2021/05/05 00:04:36;;;;;;;16.67;5.13;;;9.20;99.90;;;9.32;77.14;99982.44;5075181;28;20493;-71
2021/05/05 00:07:04;;;;;;;15.27;5.38;;;9.10;99.90;;;9.35;77.10;99977.09;5076255;28;20078;-72
2021/05/05 00:09:31;;;;;;;10.55;4.97;;;9.20;99.90;;;9.36;77.22;99978.88;5075857;28;20442;-71
2021/05/05 00:11:58;;;;;;;17.25;5.78;;;9.20;99.90;;;9.35;77.15;99982.38;5076180;28;20041;-71
2021/05/05 00:14:27;;;;;;;17.90;5.35;;;9.20;99.90;;;9.37;76.82;99975.31;5074708;28;20127;-71
2021/05/05 00:16:54;;;;;;;17.42;6.15;;;9.20;99.90;;;9.08;77.90;99969.56;5076008;28;20098;-71
2021/05/05 00:19:22;;;;;;;15.55;6.07;;;9.10;99.90;;;9.26;78.04;99971.97;5076093;28;20063;-71
2021/05/05 00:21:49;;;;;;;17.40;6.38;;;9.10;99.90;;;9.24;77.62;99980.78;5076092;28;20048;-71
2021/05/05 00:24:17;;;;;;;14.25;5.40;;;9.10;99.90;;;9.25;77.57;99970.25;5074618;28;20139;-71
2021/05/05 00:26:44;;;;;;;14.73;5.65;;;9.10;99.90;;;9.31;77.55;99971.91;5075807;28;20434;-71
2021/05/05 00:29:11;;;;;;;17.55;5.95;;;9.20;99.90;;;9.32;76.59;99971.88;5075764;28;20037;-71
2021/05/05 00:31:40;;;;;;;18.95;7.25;;;9.10;99.90;;;9.24;77.12;99973.75;5075532;28;20494;-71
2021/05/05 00:34:08;;;;;;;17.08;5.63;;;9.10;99.90;;;9.42;76.92;99973.50;5075736;28;20135;-71
2021/05/05 00:36:36;;;;;;;10.90;6.15;;;9.20;99.90;;;9.36;76.73;99962.16;5075416;28;20036;-73
2021/05/05 00:39:05;;;;;;;16.05;5.65;;;9.20;99.90;;;9.28;75.57;99964.03;5075373;28;20045;-71
2021/05/05 00:41:32;;;;;;;14.27;6.20;;;9.20;99.90;;;9.32;75.67;99965.72;5075622;28;20115;-71
2021/05/05 00:44:00;;;;;;;15.27;5.95;;;9.10;99.90;;;9.34;76.44;99959.53;5075105;28;20517;-71
2021/05/05 00:46:27;;;;;;;18.30;6.22;;;9.20;99.90;;;9.36;77.05;99957.75;5073949;28;20049;-71
2021/05/05 00:48:55;;;;;;;18.60;6.13;;;9.20;99.90;;;9.33;78.22;99965.69;5075512;28;20090;-71
2021/05/05 00:51:23;;;;;;;17.63;5.32;;;9.20;99.90;;;9.34;78.41;99967.47;5075399;28;20125;-71
2021/05/05 00:53:50;;;;;;;18.92;5.95;;;9.10;99.90;;;9.23;78.36;99963.22;5075679;28;20489;-73
2021/05/05 00:56:18;;;;;;;19.83;6.35;;;9.10;99.90;;;9.13;77.96;99958.97;5074055;28;20040;-71
2021/05/05 00:58:46;;;;;;;21.08;7.20;;;9.00;99.90;;;9.11;77.28;99966.91;5075315;28;20040;-73
2021/05/05 01:01:14;;;;;;;19.00;5.97;;;9.00;99.90;;;8.95;76.96;99963.59;5075391;28;20040;-72
2021/05/05 01:03:42;;;;;;;20.98;6.78;;;8.90;99.90;;;9.06;76.71;99964.31;5075073;28;20045;-74
2021/05/05 01:06:11;;;;;;;19.48;6.63;;;8.90;99.90;;;9.05;76.53;99972.25;5073667;28;20436;-71
2021/05/05 01:08:38;;;;;;;15.35;6.75;;;8.90;99.90;;;9.02;76.44;99969.63;5075423;28;20063;-71
2021/05/05 01:11:06;;;;;;;13.75;6.90;;;8.90;99.90;;;8.74;76.83;99944.50;5074085;28;20425;-72
2021/05/05 01:13:34;;;;;;;24.20;7.93;;;8.90;99.90;;;9.01;76.67;99981.09;5074816;28;20056;-70
2021/05/05 01:16:01;;;;;;;18.45;7.18;;;8.80;99.90;;;9.03;76.51;99972.28;5073935;28;20045;-71
2021/05/05 01:18:29;;;;;;;22.48;6.55;;;8.90;99.90;;;8.96;76.25;99964.47;5073682;28;20060;-71
2021/05/05 01:20:59;;;;;;;23.48;7.00;;;8.90;99.90;;;8.89;76.79;99970.69;5074521;28;20033;-71
2021/05/05 01:23:28;;;;;;;22.25;7.75;;;8.80;99.90;;;8.77;76.37;99960.28;5073879;28;20131;-70
2021/05/05 01:25:56;;;;;;;20.60;7.63;;;8.70;99.90;;;8.70;76.25;99942.81;5073524;28;20440;-71
2021/05/05 01:28:27;;;;;;;17.35;6.60;;;8.70;99.90;;;8.81;75.69;99968.16;5074992;28;20055;-71
2021/05/05 01:36:59;;;;;;;18.42;7.10;;;8.70;99.90;;;8.73;76.36;99971.78;4823090;29;20302;-74
2021/05/05 01:39:27;;;;;;;21.40;7.43;;;8.60;99.90;;;8.68;76.40;99966.53;4825168;29;20046;-72
2021/05/05 01:41:57;;;;;;;20.95;7.40;;;8.60;99.90;;;8.80;76.55;99968.16;4808484;29;20074;-70
2021/05/05 01:44:35;;;;;;;20.88;7.30;;;8.60;99.90;;;8.66;76.23;99962.19;4825135;29;20050;-71
2021/05/05 01:47:07;;;;;;;19.30;6.78;;;8.60;99.90;;;8.55;76.66;99942.97;4825168;29;20050;-71
2021/05/05 01:49:41;;;;;;;13.95;6.82;;;8.60;99.90;;;8.82;76.33;99969.91;4825129;29;20408;-71
2021/05/05 01:52:10;;;;;;;22.70;7.35;;;8.60;99.90;;;8.94;76.19;99968.88;4825293;29;20057;-71
2021/05/05 01:54:38;;;;;;;28.00;7.55;;;8.70;99.90;;;8.90;76.50;99967.16;4825206;29;20047;-71
2021/05/05 01:57:35;;;;;;;28.42;7.30;;;8.70;99.90;;;8.91;75.94;99961.88;4823703;29;20054;-71
2021/05/05 02:00:12;;;;;;;21.92;7.60;;;8.80;99.90;;;8.75;76.09;99957.66;4825110;29;20069;-71
2021/05/05 02:02:46;;;;;;;18.15;6.88;;;8.70;99.90;;;8.70;76.88;99958.63;4809719;29;20054;-71
2021/05/05 02:05:23;;;;;;;21.98;7.80;;;8.60;99.90;;;8.10;77.10;99836.31;4823752;29;20078;-71
2021/05/05 02:07:59;;;;;;;22.27;6.38;;;8.70;99.90;;;8.67;76.48;99959.50;4823853;29;20504;-71
2021/05/05 02:10:27;;;;;;;27.25;7.30;;;8.60;99.90;;;8.60;75.97;99964.88;4824945;29;20107;-71
2021/05/05 02:12:54;;;;;;;21.85;7.80;;;8.50;99.90;;;8.70;75.39;99963.88;4824687;29;20145;-71
2021/05/05 02:15:24;;;;;;;17.85;6.70;;;8.60;99.90;;;8.66;75.23;99956.91;4808385;29;20081;-71
2021/05/05 02:18:00;;;;;;;20.67;6.68;;;8.50;99.90;;;8.65;74.27;99963.94;4824740;29;20110;-71
2021/05/05 02:20:28;;;;;;;17.50;5.63;;;8.50;99.90;;;8.68;72.77;99965.66;4808085;29;20046;-72
2021/05/05 02:22:59;;;;;;;11.88;5.68;;;8.60;99.90;;;8.46;70.89;99958.91;4823638;29;20505;-72
2021/05/05 02:25:28;;;;;;;13.32;5.57;;;8.40;99.90;;;8.40;70.49;99970.34;4824490;29;20058;-71
2021/05/05 02:28:00;;;;;;;9.88;5.05;;;8.40;99.90;;;8.69;70.30;99984.09;4808098;29;20143;-71
2021/05/05 02:30:34;;;;;;;10.90;4.28;;;8.50;99.90;;;8.46;69.45;99927.28;4808066;29;20050;-71
2021/05/05 02:33:20;;;;;;;7.28;4.70;;;8.50;99.90;;;8.63;68.06;99978.03;4824688;29;20114;-71
2021/05/05 02:35:48;;;;;;;9.38;4.50;;;8.50;99.90;;;8.77;67.93;99966.44;4823075;29;20486;-71
2021/05/05 02:38:17;;;;;;;8.07;4.22;;;8.60;99.90;;;8.89;67.31;99971.56;4824495;29;20046;-71
2021/05/05 02:40:47;;;;;;;8.95;4.93;;;8.70;99.90;;;8.91;67.17;99976.81;4807807;29;20050;-71
2021/05/05 02:43:16;;;;;;;7.82;4.80;;;8.80;99.90;;;8.88;67.21;99990.91;4824356;29;20046;-71
2021/05/05 02:45:44;;;;;;;8.85;4.60;;;8.70;99.90;;;8.91;68.26;99982.09;4807925;29;20505;-71
2021/05/05 02:48:12;;;;;;;13.27;5.70;;;8.70;99.90;;;8.66;70.43;99983.25;4824445;29;20054;-71
2021/05/05 02:50:40;;;;;;;15.95;6.07;;;8.60;99.90;;;8.66;71.53;99985.91;4807836;29;20089;-71
2021/05/05 02:53:07;;;;;;;11.55;6.25;;;8.50;99.90;;;8.72;72.45;99989.34;4824264;29;20050;-71
2021/05/05 02:55:36;;;;;;;12.75;6.00;;;8.60;99.90;;;8.73;72.92;99991.09;4823113;29;20115;-71
2021/05/05 02:58:04;;;;;;;15.85;6.15;;;8.60;99.90;;;8.79;73.24;99985.75;4824130;29;20047;-71
2021/05/05 03:00:31;;;;;;;11.77;5.95;;;8.60;99.90;;;8.78;73.17;99998.94;4824124;29;20076;-71
2021/05/05 03:02:59;;;;;;;15.20;6.10;;;8.60;99.90;;;8.59;74.69;100000.03;4824042;29;20523;-70
2021/05/05 03:05:26;;;;;;;13.93;6.07;;;8.50;99.90;;;8.26;76.85;99989.84;4822677;29;20050;-71
2021/05/05 03:07:54;;;;;;;17.70;6.00;;;8.30;99.90;;;8.31;76.91;99999.44;4822829;29;20085;-71
2021/05/05 03:10:22;;;;;;;18.38;6.20;;;8.20;99.90;;;8.28;77.66;99988.06;4823863;29;20466;-71
2021/05/05 03:12:50;;;;;;;19.35;7.07;;;8.20;99.90;;;8.23;77.35;99989.84;4824156;29;20046;-71
2021/05/05 03:15:18;;;;;;;17.60;6.95;;;8.20;99.90;;;8.32;77.22;99995.94;4823917;29;20526;-71
2021/05/05 03:17:52;;;;;;;19.15;6.32;;;8.20;99.90;;;7.71;77.50;99898.13;4824031;29;20074;-71
2021/05/05 03:20:20;;;;;;;17.73;6.60;;;8.20;99.90;;;8.04;77.65;99982.09;4824094;29;20053;-71
2021/05/05 03:22:47;;;;;;;15.23;6.95;;;8.10;99.90;;;8.20;78.06;100006.53;4823751;29;20179;-71
2021/05/05 03:25:15;;;;;;;21.15;6.68;;;8.00;99.90;;;8.26;77.78;100000.38;4807559;29;20054;-71
2021/05/05 03:27:42;;;;;;;15.27;6.90;;;8.10;99.90;;;8.17;77.37;100004.78;4824143;29;20050;-71
2021/05/05 03:30:12;;;;;;;19.25;6.63;;;8.00;99.90;;;8.08;76.66;100012.78;4823887;29;20110;-71
2021/05/05 03:32:39;;;;;;;17.00;6.38;;;7.90;99.90;;;8.15;77.55;100005.69;4823883;29;20141;-71
2021/05/05 03:35:09;;;;;;;10.48;6.22;;;8.00;99.90;;;8.08;76.46;99990.84;4823633;29;20423;-71
2021/05/05 03:37:36;;;;;;;12.63;6.40;;;8.00;99.90;;;7.88;77.05;99963.78;4823635;29;20053;-71
2021/05/05 03:40:06;;;;;;;16.85;5.90;;;7.90;99.90;;;8.16;76.18;99996.91;4827188;29;20564;-71
2021/05/05 03:42:34;;;;;;;9.70;5.50;;;8.10;99.90;;;8.17;75.41;99994.25;4827066;29;20062;-72
2021/05/05 03:45:04;;;;;;;13.48;6.18;;;8.00;99.90;;;8.11;75.64;99988.16;4825970;29;20070;-71
2021/05/05 03:47:32;;;;;;;9.68;5.35;;;8.10;99.90;;;8.15;74.92;100003.94;4826025;29;20093;-71
2021/05/05 03:50:00;;;;;;;8.30;4.70;;;8.00;99.90;;;8.20;74.76;100004.78;4827037;29;20050;-71
2021/05/05 03:52:28;;;;;;;10.73;5.15;;;8.10;99.90;;;8.25;74.37;100001.25;4810896;29;20074;-71
2021/05/05 03:54:55;;;;;;;9.32;5.07;;;8.10;99.90;;;8.20;74.43;100014.44;4825870;29;20076;-71
2021/05/05 03:57:23;;;;;;;9.57;5.38;;;8.10;99.90;;;7.92;75.38;99984.81;4810674;29;20401;-71
2021/05/05 03:59:50;;;;;;;9.77;5.03;;;8.00;99.90;;;8.02;75.71;100011.94;4826905;29;20055;-71
2021/05/05 04:02:19;;;;;;;10.10;5.30;;;7.90;99.90;;;7.89;75.66;99982.22;4826631;29;20051;-71
2021/05/05 04:04:47;;;;;;;8.52;4.57;;;7.90;99.90;;;8.12;76.00;100011.88;4826878;29;20050;-72
2021/05/05 04:07:15;;;;;;;11.82;6.13;;;8.00;99.90;;;8.24;75.81;100016.16;4826894;29;20050;-68
2021/05/05 04:09:44;;;;;;;12.00;5.17;;;8.10;99.90;;;8.11;75.78;99978.50;4810555;29;20058;-73
2021/05/05 04:12:13;;;;;;;13.10;5.22;;;8.10;99.90;;;8.26;75.50;100003.00;4826599;29;20081;-73
2021/05/05 04:14:42;;;;;;;14.45;5.47;;;8.10;99.90;;;8.20;75.37;100022.34;4826583;29;20058;-71
2021/05/05 04:17:27;;;;;;;10.93;5.93;;;8.00;99.90;;;8.29;76.54;100021.41;4826610;29;20499;-72
2021/05/05 04:20:16;;;;;;;13.63;6.13;;;8.10;99.90;;;8.11;75.88;100019.75;4826572;29;20051;-73
2021/05/05 04:23:01;;;;;;;18.23;7.18;;;8.10;99.90;;;8.21;75.32;100024.94;4826438;29;20058;-73
2021/05/05 04:25:47;;;;;;;17.13;6.18;;;8.10;99.90;;;7.78;75.98;100005.09;4810309;29;20058;-73
2021/05/05 04:28:14;;;;;;;22.38;6.78;;;7.80;99.90;;;7.72;77.11;100018.34;4826357;29;20535;-73
2021/05/05 04:30:41;;;;;;;18.65;7.30;;;7.60;99.90;;;7.72;77.86;100022.72;4826296;29;20103;-73
2021/05/05 04:33:09;;;;;;;17.60;7.53;;;7.60;99.90;;;7.76;78.26;100029.72;4826309;29;20126;-73
2021/05/05 04:35:37;;;;;;;20.42;8.15;;;7.60;99.90;;;7.74;79.12;100027.06;4826016;29;20094;-73
2021/05/05 04:38:05;;;;;;;24.00;8.43;;;7.60;99.90;;;7.76;79.68;100027.06;4826427;29;20431;-73
2021/05/05 04:40:32;;;;;;;23.25;8.00;;;7.60;99.90;;;7.67;80.35;100012.19;4826481;29;20148;-73
2021/05/05 04:43:00;;;;;;;22.38;7.57;;;7.60;99.90;;;7.85;80.86;100027.88;4826249;29;20046;-73
2021/05/05 04:45:27;;;;;;;23.90;7.97;;;7.60;99.90;;;7.77;80.86;100028.81;4826067;29;20058;-73
2021/05/05 04:47:55;;;;;;;29.23;8.55;;;7.60;99.90;;;7.81;81.40;100026.16;4826097;29;20046;-73
2021/05/05 04:50:22;;;;;;;24.92;8.10;;;7.60;99.90;;;7.93;80.69;100033.97;4825892;29;20062;-73
2021/05/05 04:52:50;;;;;;;32.47;9.50;;;7.80;99.90;;;8.05;80.42;100041.75;4826190;29;20054;-72
2021/05/05 04:55:18;;;;;;;27.30;9.32;;;7.90;99.90;;;8.09;79.07;100040.84;4824842;29;20050;-73
2021/05/05 04:57:46;;;;;;;27.85;9.13;;;7.90;99.90;;;8.17;79.08;100038.16;4825997;29;20046;-73
2021/05/05 05:00:14;;;;;;;22.80;8.80;;;8.00;99.90;;;7.94;78.67;100011.13;4825944;29;20058;-73
2021/05/05 05:02:42;;;;;;;27.02;8.50;;;8.00;99.90;;;8.18;79.07;100032.91;4825680;29;20110;-73
2021/05/05 05:05:12;;;;;;;23.75;7.70;;;8.10;99.90;;;8.18;78.62;100053.09;4825651;29;20083;-73
2021/05/05 05:07:39;;;;;;;24.85;7.25;;;8.10;99.90;;;8.13;77.99;100039.06;4824681;29;20054;-73
2021/05/05 05:10:10;;;;;;;19.50;6.45;;;8.10;99.90;;;7.95;76.48;100055.91;4825705;29;20046;-73
2021/05/05 05:12:37;;;;;;;13.20;7.03;;;7.90;99.90;;;7.91;75.38;100055.91;4825764;29;20794;-73
2021/05/05 05:15:06;;;;;;;14.60;6.90;;;7.80;99.90;;;7.96;74.63;100067.28;4825614;29;20462;-73
2021/05/05 05:17:34;;;;;;;12.55;5.88;;;7.90;99.90;;;7.95;73.15;100069.06;4809216;29;20412;-72
2021/05/05 05:20:05;;;;;;;16.30;5.57;;;7.90;99.90;;;8.13;73.42;100081.19;4825759;29;20054;-73
2021/05/05 05:22:34;;;;;;;12.20;6.20;;;8.00;99.90;;;7.95;73.77;100039.22;4825664;29;20062;-73
2021/05/05 05:25:02;;;;;;;18.20;7.10;;;8.00;99.90;;;8.23;74.12;100079.41;4825621;29;20054;-72
2021/05/05 05:27:30;;;;;;;19.10;6.68;;;8.10;99.90;;;8.35;74.18;100088.09;4824216;29;20058;-72
2021/05/05 05:29:58;;;;;;;19.83;7.57;;;8.20;99.90;;;8.61;74.08;100091.41;4825291;29;20511;-73
2021/05/05 05:32:26;;;;;;;28.67;7.18;;;8.40;99.90;;;8.52;74.37;100072.13;4825502;29;20386;-73
2021/05/05 05:34:54;;;;;;;31.05;8.27;;;8.50;99.90;;;8.72;74.60;100083.38;4825225;29;20050;-72
2021/05/05 05:37:21;;;;;;;24.38;7.40;;;8.60;99.90;;;8.90;75.34;100096.38;4825354;29;20063;-72
2021/05/05 05:39:48;;;;;;;27.02;7.50;;;8.70;99.90;;;8.85;75.29;100085.88;4825286;29;20050;-73
2021/05/05 05:42:16;;;;;;;20.95;8.07;;;8.70;99.90;;;8.73;74.73;100095.69;4825199;29;20054;-74
2021/05/05 05:44:46;;;;;;;26.48;7.28;;;8.70;99.90;;;8.67;74.00;100077.28;4825100;29;20046;-72
2021/05/05 05:47:13;;;;;;;28.60;8.30;;;8.60;99.90;;;8.49;73.57;100080.97;4808672;29;20053;-74
2021/05/05 05:49:41;;;;;;;19.90;7.50;;;8.50;99.90;;;8.46;74.27;100085.38;4825277;29;20053;-73
2021/05/05 05:52:08;;;;;;;23.52;8.05;;;8.40;99.90;;;8.37;73.05;100075.78;4808760;29;20508;-72
2021/05/05 05:54:36;;;;;;;22.33;7.55;;;8.30;99.90;;;8.74;73.32;100100.06;4825099;29;20057;-73
2021/05/05 05:57:04;;;;;;;22.02;7.70;;;8.50;99.90;;;8.84;72.48;100088.53;4824882;29;20046;-73
2021/05/05 05:59:32;;;;;;;22.95;7.25;;;8.70;99.90;;;8.81;72.58;100113.16;4825008;29;20557;-73
2021/05/05 06:02:00;;;;;;;23.23;7.63;;;8.70;99.90;;;8.74;73.04;100111.47;4808103;29;20054;-73
2021/05/05 06:04:28;;;;;;;22.17;7.47;;;8.60;99.90;;;8.80;73.05;100124.59;4825178;29;20038;-72
2021/05/05 06:06:56;;;;;;;24.25;8.13;;;8.70;99.90;;;8.92;73.63;100118.34;4824891;29;20121;-73
2021/05/05 06:09:23;;;;;;;28.50;9.00;;;8.80;99.90;;;8.70;72.97;100122.06;4824870;29;20057;-72
2021/05/05 06:11:51;;;;;;;18.23;7.30;;;8.70;99.90;;;8.51;73.35;100128.38;4824695;29;20064;-72
2021/05/05 06:14:18;;;;;;;11.77;5.68;;;8.50;99.90;;;8.23;74.61;100150.53;4824920;29;20057;-72
2021/05/05 06:16:46;;;;;;;13.65;5.82;;;8.20;99.90;;;8.01;75.70;100145.34;4824715;29;20050;-72
2021/05/05 06:19:14;;;;;;;20.60;6.55;;;8.00;99.90;;;7.93;76.54;100156.84;4824987;29;20042;-72
2021/05/05 06:21:42;;;;;;;15.18;6.70;;;7.90;99.90;;;7.76;76.67;100161.31;4824611;29;20054;-73
2021/05/05 06:24:10;;;;;;;14.13;5.97;;;7.70;99.90;;;7.66;78.66;100165.75;4808050;29;20046;-72
2021/05/05 06:26:37;;;;;;;13.88;5.93;;;7.60;99.90;;;7.51;79.86;100165.78;4808368;29;20134;-72
2021/05/05 06:29:05;;;;;;;13.75;6.07;;;7.40;99.90;;;7.39;81.48;100170.22;4824699;29;20048;-72
2021/05/05 06:31:32;;;;;;;11.67;5.33;;;7.30;99.90;;;7.21;81.39;100163.25;4823321;29;20107;-72
2021/05/05 06:34:00;;;;;;;8.60;5.70;;;7.20;99.90;;;7.16;80.77;100163.25;4824583;29;20046;-73
2021/05/05 06:36:28;;;;;;;7.43;5.03;;;7.10;99.90;;;7.02;81.29;100172.06;4824454;29;20162;-73
2021/05/05 06:38:55;;;;;;;10.27;6.13;;;7.00;99.90;;;7.16;81.77;100181.66;4824267;29;20054;-73
2021/05/05 06:41:23;;;;;;;13.13;5.63;;;7.00;99.90;;;6.96;82.56;100179.94;4824422;29;20129;-74
2021/05/05 06:43:50;;;;;;;14.33;6.27;;;6.90;99.90;;;6.40;82.95;100187.81;4824445;29;20130;-76
2021/05/05 06:46:18;;;;;;;18.83;6.47;;;6.50;99.90;;;6.47;83.89;100205.34;4824264;29;20561;-76
2021/05/05 06:48:46;;;;;;;20.00;7.57;;;6.40;99.90;;;6.49;84.83;100197.44;4824281;29;20501;-77
2021/05/05 06:51:13;;;;;;;22.07;6.93;;;6.40;99.90;;;6.56;85.82;100215.00;4824160;29;20055;-76
2021/05/05 06:53:41;;;;;;;20.83;6.47;;;6.40;99.90;;;6.59;86.12;100210.59;4824348;29;20050;-75
2021/05/05 06:56:09;;;;;;;19.57;7.23;;;6.50;99.90;;;6.69;86.16;100199.22;4824242;29;20462;-76
2021/05/05 06:58:36;;;;;;;12.00;6.03;;;6.60;99.90;;;6.77;86.02;100205.38;4824440;29;20073;-74
2021/05/05 07:01:03;;;;;;;13.20;5.50;;;6.70;99.90;;;6.86;85.71;100199.22;4824108;29;20056;-76
2021/05/05 07:03:31;;;;;;;13.77;6.17;;;6.70;99.90;;;7.18;85.23;100207.97;4824022;29;20068;-75
2021/05/05 07:05:59;;;;;;;18.43;7.53;;;7.00;99.90;;;7.32;85.11;100201.78;4824383;29;20075;-75
2021/05/05 07:08:26;;;;;;;20.63;8.82;;;7.20;99.90;;;7.52;84.28;100200.84;4822906;29;20520;-74
2021/05/05 07:10:55;;;;;;;22.92;8.57;;;7.40;99.90;;;7.78;84.60;100205.16;4824154;29;20133;-74
2021/05/05 07:13:23;;;;;;;34.05;10.10;;;7.60;99.90;;;8.21;84.80;100211.97;4823112;29;20092;-73
2021/05/05 07:15:50;;;;;;;27.52;9.18;;;8.00;99.90;;;8.48;83.81;100210.09;4823893;29;20072;-73
2021/05/05 07:18:17;;;;;;;31.40;8.25;;;8.30;99.90;;;8.50;81.53;100209.19;4823808;29;20065;-74
2021/05/05 07:20:45;;;;;;;23.95;8.63;;;8.40;99.90;;;8.45;80.34;100189.03;4807630;29;20058;-74
2021/05/05 07:23:12;;;;;;;21.58;9.20;;;8.50;99.90;;;8.52;78.82;100211.81;4823742;29;20553;-74
2021/05/05 07:25:40;;;;;;;21.13;8.73;;;8.50;99.90;;;8.76;79.23;100215.16;4823851;29;20129;-73
2021/05/05 07:28:09;;;;;;;26.13;8.88;;;8.60;99.90;;;8.79;77.86;100217.75;4823684;29;20042;-74
2021/05/05 07:30:37;;;;;;;28.42;9.57;;;8.70;99.90;;;8.87;77.40;100222.97;4823720;29;20093;-73
2021/05/05 07:33:06;;;;;;;27.73;9.18;;;8.70;99.90;;;8.75;76.69;100217.81;4822309;29;20553;-72
2021/05/05 07:35:34;;;;;;;23.48;8.13;;;8.70;99.90;;;8.40;78.04;100247.00;4823427;29;20420;-73
2021/05/05 07:46:32;;;;;;;28.05;8.50;;;8.10;99.90;;;8.21;81.29;100251.47;4819227;29;20066;-73
2021/05/05 07:49:01;;;;;;;22.98;8.20;;;8.10;99.90;;;8.07;81.71;100240.13;4823654;29;20058;-73
2021/05/05 07:51:29;;;;;;;22.88;7.70;;;8.10;99.90;;;8.11;80.40;100247.13;4823447;29;20047;-73
2021/05/05 07:53:58;;;;;;;21.80;7.68;;;8.00;99.90;;;8.20;79.26;100251.50;4823357;29;20057;-72
2021/05/05 07:56:25;;;;;;;25.35;7.20;;;8.10;99.90;;;8.34;79.94;100249.72;4823691;29;20468;-78
2021/05/05 07:58:52;;;;;;;21.63;7.13;;;8.30;99.90;;;8.67;78.66;100262.66;4823567;29;20054;-79
2021/05/05 08:01:19;;;;;;;29.30;7.90;;;8.50;99.90;;;8.95;78.54;100263.34;4823335;29;20161;-77
2021/05/05 08:03:47;;;;;;;18.02;6.55;;;8.80;99.90;;;8.81;76.03;100273.09;4823285;29;20050;-76
2021/05/05 08:06:16;;;;;;;17.50;6.70;;;8.80;99.90;;;8.80;76.21;100271.38;4823418;29;20054;-76
2021/05/05 08:08:44;;;;;;;20.63;5.93;;;8.70;99.90;;;8.72;76.80;100254.72;4807242;29;20067;-76
2021/05/05 08:11:11;;;;;;;21.98;7.53;;;8.60;99.90;;;8.77;76.43;100285.44;4823468;29;20050;-77
2021/05/05 08:13:41;;;;;;;18.95;6.90;;;8.60;99.90;;;9.03;76.48;100270.31;4822220;29;20149;-77
2021/05/05 08:16:09;;;;;;;25.77;7.18;;;8.80;99.90;;;9.08;75.44;100275.53;4823364;29;20521;-76
2021/05/05 08:18:37;;;;;;;22.42;7.15;;;9.00;99.90;;;9.15;75.45;100298.38;4823223;29;20082;-75
2021/05/05 08:21:08;;;;;;;17.73;7.25;;;9.00;99.90;;;9.39;74.53;100295.50;4823131;29;20051;-76
2021/05/05 08:23:36;;;;;;;17.95;7.50;;;9.20;99.90;;;9.26;74.50;100303.53;4823258;29;20047;-77
2021/05/05 08:26:07;;;;;;;22.77;7.60;;;9.20;99.90;;;9.34;74.01;100302.59;4826606;29;20084;-76
2021/05/05 08:28:35;;;;;;;19.45;7.13;;;9.20;99.90;;;9.34;73.38;100302.59;4826374;29;20061;-77
2021/05/05 08:31:04;;;;;;;18.58;6.25;;;9.30;99.90;;;9.27;75.26;100323.78;4826319;29;20458;-74
2021/05/05 08:33:33;;;;;;;10.60;5.50;;;9.20;99.90;;;8.63;75.24;100308.38;4826059;29;20058;-74
2021/05/05 08:36:01;;;;;;;6.10;4.80;;;8.70;99.90;;;8.23;76.12;100318.22;4826025;29;20076;-79
2021/05/05 08:38:29;;;;;;;7.70;5.30;;;8.30;99.90;;;7.99;77.60;100294.56;4826328;29;20058;-74
2021/05/05 08:40:56;;;;;;;8.52;4.35;;;8.10;99.90;;;8.23;78.20;100327.84;4826228;29;20050;-85
2021/05/05 08:43:24;;;;;;;14.48;6.05;;;8.10;99.90;;;8.46;78.20;100330.47;4826085;29;20081;-78
2021/05/05 08:45:56;;;;;;;18.52;6.15;;;8.30;99.90;;;8.67;79.13;100338.25;4825995;29;20054;-75
2021/05/05 08:48:24;;;;;;;13.70;5.68;;;8.50;99.90;;;8.88;79.09;100323.16;4826166;29;20089;-74
2021/05/05 08:50:53;;;;;;;13.95;6.30;;;8.70;99.90;;;8.85;77.64;100327.56;4826082;29;20050;-83
2021/05/05 08:53:21;;;;;;;16.00;5.75;;;8.70;99.90;;;8.88;75.96;100330.22;4825965;29;20046;-83
2021/05/05 08:55:48;;;;;;;12.45;6.13;;;8.80;99.90;;;9.02;74.66;100330.97;4824801;29;20046;-76
2021/05/05 08:58:16;;;;;;;15.18;5.88;;;8.90;99.90;;;9.04;72.45;100331.84;4809604;29;20497;-75
2021/05/05 09:00:43;;;;;;;14.60;5.88;;;8.90;99.90;;;9.05;72.81;100357.34;4825848;29;20075;-75
2021/05/05 09:03:11;;;;;;;12.23;5.63;;;8.90;99.90;;;9.27;72.47;100358.94;4809604;29;20054;-79
2021/05/05 09:05:54;;;;;;;12.30;5.80;;;9.10;99.90;;;9.44;72.53;100390.50;4825714;29;20054;-78
2021/05/05 09:08:22;;;;;;;8.30;4.90;;;9.30;99.90;;;9.48;71.46;100379.91;4824766;29;20062;-79
2021/05/05 09:10:59;;;;;;;14.32;5.40;;;9.30;99.90;;;9.54;70.57;100366.63;4825773;29;20152;-78
2021/05/05 09:13:49;;;;;;;11.85;4.88;;;9.40;99.90;;;9.65;71.16;100393.84;4825658;29;20055;-78
2021/05/05 09:16:23;;;;;;;15.52;5.60;;;9.50;99.90;;;9.66;71.89;100400.84;4824641;29;20061;-79
2021/05/05 09:19:00;;;;;;;14.35;5.53;;;9.50;99.90;;;9.72;72.25;100390.25;4825720;29;20129;-78
2021/05/05 09:21:33;;;;;;;12.68;5.50;;;9.70;99.90;;;9.63;72.00;100405.31;4825584;29;20050;-78
2021/05/05 09:24:23;;;;;;;14.65;4.93;;;9.60;99.90;;;9.25;71.36;100389.75;4825969;29;20103;-79
2021/05/05 09:26:52;;;;;;;12.82;5.35;;;9.30;99.90;;;9.28;72.57;100397.66;4825725;29;20069;-81
2021/05/05 09:29:22;;;;;;;17.35;6.57;;;9.20;99.90;;;9.34;71.60;100372.97;4824398;29;20050;-81
2021/05/05 09:31:49;;;;;;;16.88;5.90;;;9.20;99.90;;;9.40;73.31;100413.41;4825594;29;20049;-78
2021/05/05 09:34:17;;;;;;;12.98;5.40;;;9.30;99.90;;;9.43;72.87;100418.66;4824363;29;20046;-77
2021/05/05 09:36:59;;;;;;;9.18;4.65;;;9.30;99.90;;;9.62;70.86;100416.75;4824415;29;20079;-79
2021/05/05 09:39:29;;;;;;;12.05;5.28;;;9.40;99.90;;;9.72;71.15;100434.25;4826289;29;20056;-79
2021/05/05 09:41:57;;;;;;;13.75;6.13;;;9.50;99.90;;;9.81;69.19;100436.84;4826905;29;20086;-80
2021/05/05 09:44:25;;;;;;;13.77;5.93;;;9.70;99.90;;;8.89;69.06;100303.81;4810049;29;20054;-80
2021/05/05 09:46:57;;;;;;;14.15;5.38;;;9.60;99.90;;;9.95;70.37;100445.50;4825602;29;20058;-78
2021/05/05 09:49:32;;;;;;;19.50;6.38;;;9.80;99.90;;;9.91;69.21;100434.09;4809384;29;20054;-79
2021/05/05 09:52:06;;;;;;;23.67;6.35;;;9.80;99.90;;;9.98;69.99;100446.38;4825206;29;20385;-78
2021/05/05 09:54:37;;;;;;;17.65;6.65;;;9.90;99.90;;;10.18;69.78;100455.91;4808651;29;20081;-77
2021/05/05 09:57:30;;;;;;;15.90;5.97;;;10.00;99.90;;;10.46;70.67;100455.63;4825050;29;20421;-76
2021/05/05 10:00:06;;;;;;;16.05;6.70;;;10.30;99.90;;;10.52;68.76;100458.19;4812191;29;20049;-72
2021/05/05 10:02:45;;;;;;;18.17;6.35;;;10.40;99.90;;;10.45;66.04;100455.66;4825012;29;20066;-79
2021/05/05 10:05:15;;;;;;;13.95;6.20;;;10.40;99.90;;;10.75;66.62;100477.34;4823603;29;20065;-78
2021/05/05 10:08:00;;;;;;;18.77;6.97;;;10.60;99.90;;;10.48;66.48;100471.47;4825118;29;20058;-82
2021/05/05 10:10:30;;;;;;;11.90;5.43;;;10.40;99.90;;;10.48;66.62;100492.63;4825225;29;20084;-77
2021/05/05 10:13:00;;;;;;;15.73;6.95;;;10.40;99.90;;;10.34;66.76;100471.59;4824890;29;20054;-76
2021/05/05 10:15:30;;;;;;;16.63;6.25;;;10.30;99.90;;;10.24;66.77;100499.00;4824815;29;20050;-77
2021/05/05 10:18:03;;;;;;;18.48;6.50;;;10.20;99.90;;;10.04;67.10;100478.00;4822928;29;20051;-76
2021/05/05 10:20:32;;;;;;;51.53;8.15;;;10.10;99.90;;;9.99;68.71;100481.56;4823502;29;20529;-79
2021/05/05 10:23:02;;;;;;;18.77;6.90;;;10.00;99.90;;;9.12;72.27;100512.06;4824569;29;20054;-76
2021/05/05 10:25:31;;;;;;;9.30;5.00;;;9.20;99.90;;;8.67;74.18;100528.06;4824795;29;20539;-76
2021/05/05 10:27:59;;;;;;;9.43;5.10;;;8.70;99.90;;;8.38;75.43;100529.88;4823364;29;20120;-78
2021/05/05 10:30:30;;;;;;;10.88;6.00;;;8.40;99.90;;;8.30;75.45;100524.59;4824442;29;20055;-78
2021/05/05 10:33:15;;;;;;;9.82;5.60;;;8.20;99.90;;;8.25;76.42;100512.28;4823454;29;20054;-81
2021/05/05 10:35:42;;;;;;;12.27;5.63;;;8.20;99.90;;;8.44;76.86;100532.50;4823242;29;20066;-79
2021/05/05 10:38:35;;;;;;;14.43;6.38;;;8.30;99.90;;;8.75;78.24;100536.84;4824483;29;20439;-80
2021/05/05 10:41:08;;;;;;;38.33;8.60;;;8.50;99.90;;;8.97;79.04;100526.22;4824571;29;20054;-82
2021/05/05 10:43:46;;;;;;;24.80;7.60;;;8.90;99.90;;;9.33;79.18;100545.41;4824401;29;20054;-80
2021/05/05 10:46:31;;;;;;;26.02;7.95;;;9.20;99.90;;;9.76;78.48;100563.63;4824525;29;20050;-83
2021/05/05 10:49:11;;;;;;;25.80;8.15;;;9.50;99.90;;;9.91;75.04;100576.75;4824294;29;20497;-78